Time;durP1;ratioP1;P1;durP2;ratioP2;P2;SDS_P1;SDS_P2;PMS_P1;PMS_P2;Temp;Humidity;BMP_temperature;BMP_pressure;BME280_temperature;BME280_humidity;BME280_pressure;Samples;Min_cycle;Max_cycle;Signal;HPM_P1;HPM_P2
2023/05/01 00:00:08;;;;;;;9.52;8.00;;;14.90;99.90;;;;;;5049976;28;20303;-63
2023/05/01 00:02:34;;;;;;;12.38;10.93;;;14.80;99.90;;;;;;5045303;28;20186;-63
2023/05/01 00:05:00;;;;;;;10.85;8.38;;;14.90;99.90;;;;;;5044517;28;20592;-63
2023/05/01 00:07:29;;;;;;;8.38;7.57;;;14.90;99.90;;;;;;5052602;28;20177;-64
2023/05/01 00:09:55;;;;;;;7.55;6.05;;;14.90;99.90;;;;;;5051719;28;20241;-63
2023/05/01 00:12:21;;;;;;;6.20;5.60;;;14.80;99.90;;;;;;5051266;28;20206;-63
2023/05/01 00:14:47;;;;;;;8.20;5.97;;;14.70;99.90;;;;;;5051594;28;20231;-63
2023/05/01 00:17:13;;;;;;;6.70;6.03;;;14.60;99.90;;;;;;5045623;28;20571;-63
2023/05/01 00:19:39;;;;;;;7.18;5.93;;;14.50;99.90;;;;;;5052972;28;20221;-63
2023/05/01 00:22:05;;;;;;;6.13;5.50;;;14.50;99.90;;;;;;5052445;28;20189;-64
2023/05/01 00:24:31;;;;;;;6.82;6.05;;;14.60;99.90;;;;;;5046895;28;20194;-63
2023/05/01 00:26:57;;;;;;;6.82;6.13;;;14.60;99.90;;;;;;5040773;28;20170;-63
2023/05/01 00:29:22;;;;;;;6.00;5.28;;;14.50;99.90;;;;;;5035913;28;20521;-63
2023/05/01 00:31:48;;;;;;;7.18;6.38;;;14.50;99.90;;;;;;5053659;28;20174;-63
2023/05/01 00:34:14;;;;;;;9.88;5.57;;;14.50;99.90;;;;;;5076414;28;20629;-63
2023/05/01 00:36:39;;;;;;;6.72;5.80;;;14.50;99.90;;;;;;5051712;28;20205;-63
2023/05/01 00:39:06;;;;;;;6.40;5.90;;;14.60;99.90;;;;;;5044158;28;20615;-64
2023/05/01 00:41:33;;;;;;;6.15;5.55;;;14.70;99.90;;;;;;5052343;28;20201;-63
2023/05/01 00:43:59;;;;;;;6.00;5.40;;;14.80;99.90;;;;;;5049385;28;20205;-63
2023/05/01 00:46:26;;;;;;;7.15;5.68;;;14.90;99.90;;;;;;5040296;28;20260;-63
2023/05/01 00:48:52;;;;;;;6.82;4.97;;;14.90;99.90;;;;;;5051807;28;20624;-63
2023/05/01 00:51:20;;;;;;;7.93;5.00;;;14.90;99.90;;;;;;5046398;28;20251;-64
2023/05/01 00:53:45;;;;;;;5.60;5.18;;;14.90;99.90;;;;;;5041846;28;20236;-63
2023/05/01 00:56:11;;;;;;;5.80;5.22;;;14.80;99.90;;;;;;5048419;28;20225;-64
2023/05/01 00:58:37;;;;;;;5.70;5.20;;;14.90;99.90;;;;;;5049937;28;20191;-63
2023/05/01 01:01:04;;;;;;;4.40;4.00;;;14.90;99.90;;;;;;5074975;28;20212;-63
2023/05/01 01:03:30;;;;;;;4.93;4.53;;;14.80;99.90;;;;;;5039080;28;20252;-65
2023/05/01 01:06:14;;;;;;;6.93;4.72;;;14.80;99.90;;;;;;5048571;28;20296;-63
2023/05/01 01:09:07;;;;;;;6.00;4.50;;;14.70;99.90;;;;;;5047829;28;20185;-63
2023/05/01 01:11:41;;;;;;;5.20;4.70;;;14.80;99.90;;;;;;5051105;28;20197;-64
2023/05/01 01:14:12;;;;;;;4.97;4.50;;;14.80;99.90;;;;;;5051043;28;20208;-63
2023/05/01 01:16:44;;;;;;;5.38;4.88;;;14.80;99.90;;;;;;5037367;28;20205;-63
2023/05/01 01:19:32;;;;;;;4.88;4.25;;;14.80;99.90;;;;;;5039939;28;20229;-63
2023/05/01 01:22:04;;;;;;;6.20;4.68;;;14.80;99.90;;;;;;5046129;28;20190;-64
2023/05/01 01:24:57;;;;;;;5.32;4.82;;;14.80;99.90;;;;;;5048621;28;20648;-64
2023/05/01 01:27:44;;;;;;;6.00;4.95;;;14.80;99.90;;;;;;5047026;28;20504;-63
2023/05/01 01:30:31;;;;;;;6.40;5.70;;;14.80;99.90;;;;;;5052023;28;20188;-63
2023/05/01 01:33:18;;;;;;;5.53;5.03;;;14.80;99.90;;;;;;5039882;28;20202;-63
2023/05/01 01:35:56;;;;;;;9.27;6.22;;;14.80;99.90;;;;;;5051403;28;20518;-64
2023/05/01 01:38:36;;;;;;;7.03;4.97;;;14.70;99.90;;;;;;5039125;28;20174;-63
2023/05/01 01:41:13;;;;;;;6.35;5.65;;;14.70;99.90;;;;;;5047579;28;20256;-64
2023/05/01 01:43:46;;;;;;;6.88;6.10;;;14.70;99.90;;;;;;5047625;28;20182;-63
2023/05/01 01:46:15;;;;;;;6.47;5.88;;;14.70;99.90;;;;;;5051378;28;20542;-63
2023/05/01 01:48:45;;;;;;;5.97;5.38;;;14.70;99.90;;;;;;5051967;28;20185;-63
2023/05/01 01:51:17;;;;;;;5.28;4.78;;;14.70;99.90;;;;;;5052021;28;20348;-63
2023/05/01 01:53:48;;;;;;;5.38;4.82;;;14.70;99.90;;;;;;5047080;28;20271;-63
2023/05/01 01:56:15;;;;;;;5.25;4.80;;;14.70;99.90;;;;;;5039043;28;20681;-64
2023/05/01 01:58:42;;;;;;;5.00;4.60;;;14.70;99.90;;;;;;5033761;28;20174;-63
2023/05/01 02:01:08;;;;;;;6.13;5.22;;;14.70;99.90;;;;;;5044410;28;20273;-63
2023/05/01 02:03:37;;;;;;;4.72;4.32;;;14.70;99.90;;;;;;5040709;28;20193;-63
2023/05/01 02:06:05;;;;;;;6.93;4.63;;;14.60;99.90;;;;;;5052346;28;20191;-63
2023/05/01 02:08:33;;;;;;;5.68;5.10;;;14.70;99.90;;;;;;5055183;28;20630;-63
2023/05/01 02:11:00;;;;;;;7.30;4.82;;;14.60;99.90;;;;;;5052518;28;20182;-63
2023/05/01 02:13:27;;;;;;;6.05;5.00;;;14.70;99.90;;;;;;5046261;28;20256;-63
2023/05/01 02:15:57;;;;;;;5.72;5.13;;;14.70;99.90;;;;;;5054681;28;20185;-63
2023/05/01 02:18:25;;;;;;;5.25;4.75;;;14.60;99.90;;;;;;5047331;28;20217;-64
2023/05/01 02:20:52;;;;;;;5.28;4.78;;;14.60;99.90;;;;;;5054960;28;21456;-63
2023/05/01 02:23:17;;;;;;;5.95;5.00;;;14.60;99.90;;;;;;5052693;28;20228;-63
2023/05/01 02:25:48;;;;;;;6.07;5.53;;;14.60;99.90;;;;;;5050047;28;20204;-63
2023/05/01 02:28:19;;;;;;;5.82;5.32;;;14.60;99.90;;;;;;5054931;28;20235;-63
2023/05/01 02:30:45;;;;;;;7.03;5.30;;;14.60;99.90;;;;;;5051488;28;20196;-63
2023/05/01 02:33:11;;;;;;;5.32;4.82;;;14.50;99.90;;;;;;5054831;28;20228;-63
2023/05/01 02:35:42;;;;;;;6.80;5.18;;;14.50;99.90;;;;;;5049627;28;20528;-63
2023/05/01 02:38:11;;;;;;;6.03;5.43;;;14.50;99.90;;;;;;5053898;28;20181;-63
2023/05/01 02:40:39;;;;;;;7.93;6.00;;;14.50;99.90;;;;;;5050998;28;20187;-63
2023/05/01 02:43:10;;;;;;;6.20;5.40;;;14.50;99.90;;;;;;5053314;28;20193;-63
2023/05/01 02:45:39;;;;;;;5.32;4.80;;;14.50;99.90;;;;;;5047030;28;20454;-63
2023/05/01 02:48:06;;;;;;;5.32;4.82;;;14.50;99.90;;;;;;5043104;28;20238;-63
2023/05/01 02:50:33;;;;;;;8.82;5.15;;;14.40;99.90;;;;;;5054400;28;20182;-63
2023/05/01 02:53:00;;;;;;;5.35;4.95;;;14.40;99.90;;;;;;5041500;28;20202;-63
2023/05/01 02:55:26;;;;;;;6.03;5.18;;;14.40;99.90;;;;;;5054248;28;20186;-63
2023/05/01 02:57:51;;;;;;;8.23;6.18;;;14.40;99.90;;;;;;5050570;28;20179;-63
2023/05/01 03:00:18;;;;;;;6.82;5.45;;;14.40;99.90;;;;;;5053216;28;20178;-63
2023/05/01 03:02:44;;;;;;;6.40;5.80;;;14.40;99.90;;;;;;5046449;28;20182;-63
2023/05/01 03:05:10;;;;;;;9.15;6.35;;;14.40;99.90;;;;;;5051909;28;20276;-65
2023/05/01 03:07:36;;;;;;;8.73;6.13;;;14.30;99.90;;;;;;5053860;28;20265;-63
2023/05/01 03:10:03;;;;;;;6.50;5.90;;;14.30;99.90;;;;;;5045807;28;20543;-63
2023/05/01 03:12:30;;;;;;;5.95;5.35;;;14.40;99.90;;;;;;5051237;28;20296;-63
2023/05/01 03:14:55;;;;;;;6.47;5.93;;;14.30;99.90;;;;;;5044111;28;20643;-63
2023/05/01 03:17:21;;;;;;;6.53;6.03;;;14.30;99.90;;;;;;5039485;28;20193;-63
2023/05/01 03:19:48;;;;;;;6.78;6.10;;;14.30;99.90;;;;;;5052153;28;20225;-63
2023/05/01 03:22:14;;;;;;;7.00;6.38;;;14.30;99.90;;;;;;5053878;28;20265;-64
2023/05/01 03:24:40;;;;;;;8.25;6.57;;;14.20;99.90;;;;;;5051557;28;20178;-64
2023/05/01 03:27:06;;;;;;;6.47;5.88;;;14.20;99.90;;;;;;5046702;28;20188;-63
2023/05/01 03:29:33;;;;;;;6.70;5.45;;;14.20;99.90;;;;;;5053811;28;20186;-63
2023/05/01 03:31:59;;;;;;;6.35;5.72;;;14.20;99.90;;;;;;5049852;28;20214;-63
2023/05/01 03:34:25;;;;;;;7.45;6.75;;;14.20;99.90;;;;;;5041933;28;20186;-63
2023/05/01 03:36:51;;;;;;;8.23;6.68;;;14.20;99.90;;;;;;5044622;28;20170;-63
2023/05/01 03:39:16;;;;;;;8.32;5.57;;;14.20;99.90;;;;;;5053687;28;20291;-64
2023/05/01 03:41:43;;;;;;;7.28;6.57;;;14.10;99.90;;;;;;5042945;28;20190;-63
2023/05/01 03:44:09;;;;;;;8.82;6.45;;;14.10;99.90;;;;;;5053150;28;20188;-64
2023/05/01 03:46:35;;;;;;;7.85;6.88;;;14.10;99.90;;;;;;5053217;28;20181;-63
2023/05/01 03:49:00;;;;;;;8.85;7.13;;;14.10;99.90;;;;;;5046539;28;20182;-63
2023/05/01 03:51:26;;;;;;;7.18;6.50;;;14.10;99.90;;;;;;5051359;28;20512;-63
2023/05/01 03:53:55;;;;;;;7.78;6.97;;;14.10;99.90;;;;;;5046788;28;20290;-63
2023/05/01 03:56:21;;;;;;;8.15;6.97;;;14.10;99.90;;;;;;5051635;28;20308;-63
2023/05/01 03:58:46;;;;;;;7.72;6.93;;;14.10;99.90;;;;;;5044176;28;20507;-63
2023/05/01 04:01:13;;;;;;;7.65;6.93;;;14.00;99.90;;;;;;5049749;28;20621;-62
2023/05/01 04:03:38;;;;;;;8.55;7.57;;;14.00;99.90;;;;;;5048621;28;20220;-64
2023/05/01 04:06:05;;;;;;;7.20;6.50;;;14.00;99.90;;;;;;5050372;28;20190;-65
2023/05/01 04:08:30;;;;;;;7.75;6.80;;;14.00;99.90;;;;;;5051812;28;20173;-64
2023/05/01 04:10:56;;;;;;;10.30;7.35;;;14.00;99.90;;;;;;5042217;28;20196;-64
2023/05/01 04:13:22;;;;;;;8.77;6.60;;;14.00;99.90;;;;;;5041928;28;20261;-64
2023/05/01 04:15:47;;;;;;;13.35;7.00;;;14.00;99.90;;;;;;5042962;28;20657;-64
2023/05/01 04:18:13;;;;;;;8.13;6.60;;;14.00;99.90;;;;;;5050564;28;20276;-64
2023/05/01 04:20:39;;;;;;;10.85;7.00;;;13.90;99.90;;;;;;5052614;28;20210;-64
2023/05/01 04:23:05;;;;;;;13.07;8.05;;;14.00;99.90;;;;;;5051994;28;20181;-63
2023/05/01 04:25:30;;;;;;;16.88;8.57;;;13.90;99.90;;;;;;5078143;28;20190;-63
2023/05/01 04:27:56;;;;;;;8.75;8.05;;;14.00;99.90;;;;;;5049810;28;20183;-63
2023/05/01 04:30:22;;;;;;;12.13;7.20;;;13.90;99.90;;;;;;5070588;28;20289;-63
2023/05/01 04:32:47;;;;;;;12.75;8.48;;;13.90;99.90;;;;;;5047729;28;20210;-64
2023/05/01 04:35:13;;;;;;;11.73;7.75;;;13.90;99.90;;;;;;5041629;28;20244;-63
2023/05/01 04:37:42;;;;;;;11.95;8.38;;;13.90;99.90;;;;;;5080884;28;20177;-64
2023/05/01 04:40:08;;;;;;;14.23;8.63;;;13.90;99.90;;;;;;5045858;28;20194;-64
2023/05/01 04:42:33;;;;;;;12.90;7.53;;;13.90;99.90;;;;;;5039459;28;20240;-64
2023/05/01 04:45:02;;;;;;;9.25;8.35;;;13.90;99.90;;;;;;5062172;28;20179;-63
2023/05/01 04:47:28;;;;;;;14.10;9.55;;;14.00;99.90;;;;;;5041819;28;20178;-64
2023/05/01 04:49:54;;;;;;;8.90;7.93;;;14.00;99.90;;;;;;5081648;28;20261;-64
2023/05/01 04:52:19;;;;;;;9.68;8.50;;;14.00;99.90;;;;;;5039273;28;20206;-64
2023/05/01 04:54:45;;;;;;;10.32;8.05;;;14.00;99.90;;;;;;5034793;28;20650;-64
2023/05/01 04:57:10;;;;;;;12.60;8.20;;;14.10;99.90;;;;;;5040900;28;20546;-63
2023/05/01 04:59:36;;;;;;;16.45;10.38;;;14.00;99.90;;;;;;5049328;28;20652;-64
2023/05/01 05:02:02;;;;;;;17.98;9.82;;;14.10;99.90;;;;;;5040863;28;20650;-64
2023/05/01 05:04:28;;;;;;;12.38;8.70;;;14.10;99.90;;;;;;5080350;28;20182;-63
2023/05/01 05:06:53;;;;;;;12.15;9.43;;;14.10;99.90;;;;;;5049598;28;20196;-63
2023/05/01 05:09:19;;;;;;;15.73;10.00;;;14.10;99.90;;;;;;5044058;28;20186;-64
2023/05/01 05:11:45;;;;;;;12.90;9.40;;;14.10;99.90;;;;;;5047457;28;20212;-64
2023/05/01 05:14:10;;;;;;;15.27;8.85;;;14.20;99.90;;;;;;5035489;28;20190;-64
2023/05/01 05:16:36;;;;;;;16.95;9.60;;;14.20;99.90;;;;;;5040566;28;20186;-64
2023/05/01 05:19:02;;;;;;;20.95;10.70;;;14.20;99.90;;;;;;5048064;28;20229;-63
2023/05/01 05:21:28;;;;;;;17.88;9.32;;;14.20;99.90;;;;;;5051808;28;20178;-64
2023/05/01 05:23:53;;;;;;;26.80;13.93;;;14.20;99.90;;;;;;5037725;28;20189;-64
2023/05/01 05:26:19;;;;;;;20.33;14.25;;;14.20;99.90;;;;;;5038865;28;20209;-64
2023/05/01 05:28:44;;;;;;;13.63;10.32;;;14.30;99.90;;;;;;5034777;28;20289;-64
2023/05/01 05:31:10;;;;;;;18.05;10.35;;;14.30;99.90;;;;;;5050496;28;20235;-64
2023/05/01 05:33:36;;;;;;;13.40;9.40;;;14.40;99.90;;;;;;5046187;28;20210;-64
2023/05/01 05:36:02;;;;;;;14.25;8.60;;;14.50;99.90;;;;;;5051356;28;20264;-64
2023/05/01 05:38:28;;;;;;;12.23;7.35;;;14.50;99.90;;;;;;5078285;28;20619;-65
2023/05/01 05:40:53;;;;;;;19.27;8.50;;;14.50;99.90;;;;;;5041147;28;20183;-64
2023/05/01 05:43:19;;;;;;;13.98;8.07;;;14.70;99.90;;;;;;5051386;28;20220;-64
2023/05/01 05:45:45;;;;;;;19.70;9.20;;;14.80;99.90;;;;;;5047892;28;20183;-64
2023/05/01 05:48:11;;;;;;;14.00;8.13;;;14.80;99.90;;;;;;5052547;28;20517;-64
2023/05/01 05:50:37;;;;;;;12.73;6.97;;;14.80;99.90;;;;;;5083630;28;20209;-64
2023/05/01 05:53:03;;;;;;;8.70;7.43;;;14.90;99.90;;;;;;5053113;28;20197;-64
2023/05/01 05:55:29;;;;;;;8.07;6.85;;;14.90;99.90;;;;;;5086994;28;20188;-64
2023/05/01 05:57:55;;;;;;;7.90;6.32;;;14.90;99.90;;;;;;5050075;28;20304;-64
2023/05/01 06:00:20;;;;;;;7.05;6.35;;;14.80;99.90;;;;;;5055222;28;20178;-64
2023/05/01 06:02:46;;;;;;;9.73;6.60;;;14.80;99.90;;;;;;5050452;28;20198;-64
2023/05/01 06:05:12;;;;;;;7.53;6.57;;;14.90;99.90;;;;;;5053450;28;20181;-64
2023/05/01 06:07:38;;;;;;;8.40;6.57;;;14.90;99.90;;;;;;5048675;28;20273;-64
2023/05/01 06:10:04;;;;;;;7.28;6.10;;;14.90;99.90;;;;;;5047720;28;20232;-64
2023/05/01 06:12:31;;;;;;;6.18;5.57;;;14.80;99.90;;;;;;5051290;28;20701;-64
2023/05/01 06:14:58;;;;;;;7.63;6.82;;;14.70;99.90;;;;;;5044317;28;20278;-65
2023/05/01 06:17:24;;;;;;;7.15;6.20;;;14.70;99.90;;;;;;5055074;28;20608;-64
2023/05/01 06:19:52;;;;;;;8.82;7.45;;;14.70;99.90;;;;;;5055709;28;20238;-64
2023/05/01 06:22:18;;;;;;;8.05;6.60;;;14.70;99.90;;;;;;5048203;28;20268;-64
2023/05/01 06:24:45;;;;;;;8.85;7.55;;;14.80;99.90;;;;;;5051684;28;20190;-64
2023/05/01 06:27:10;;;;;;;10.55;6.50;;;14.80;99.90;;;;;;5054721;28;20657;-63
2023/05/01 06:29:36;;;;;;;11.18;6.88;;;14.90;99.90;;;;;;5046849;28;20186;-63
2023/05/01 06:32:02;;;;;;;8.82;7.38;;;15.00;99.90;;;;;;5051930;28;20714;-64
2023/05/01 06:34:28;;;;;;;9.10;6.75;;;15.00;99.90;;;;;;5051843;28;20584;-64
2023/05/01 06:36:54;;;;;;;8.70;7.45;;;15.20;99.90;;;;;;5051238;28;20186;-64
2023/05/01 06:39:20;;;;;;;8.70;7.22;;;15.20;99.90;;;;;;5044081;28;20178;-65
2023/05/01 06:41:46;;;;;;;11.07;7.43;;;15.40;99.90;;;;;;5052639;28;20186;-64
2023/05/01 06:44:12;;;;;;;8.00;7.20;;;15.50;99.90;;;;;;5047914;28;20173;-65
2023/05/01 06:46:38;;;;;;;8.70;7.80;;;15.70;99.90;;;;;;5052304;28;20320;-64
2023/05/01 06:49:04;;;;;;;11.40;7.03;;;15.70;99.90;;;;;;5054041;28;20398;-65
2023/05/01 06:51:30;;;;;;;9.35;8.43;;;15.80;99.90;;;;;;5054565;28;20185;-65
2023/05/01 06:53:56;;;;;;;12.32;8.00;;;15.80;99.90;;;;;;5054203;28;20666;-64
2023/05/01 06:56:22;;;;;;;9.73;8.73;;;16.10;99.90;;;;;;5053260;28;20264;-64
2023/05/01 06:58:47;;;;;;;9.20;8.30;;;16.30;99.90;;;;;;5048222;28;20587;-64
2023/05/01 07:01:13;;;;;;;12.82;9.02;;;16.40;99.90;;;;;;5054377;28;20177;-64
2023/05/01 07:03:39;;;;;;;11.98;8.55;;;16.50;99.90;;;;;;5053617;28;20209;-64
2023/05/01 07:06:05;;;;;;;11.52;9.55;;;16.60;99.90;;;;;;5043432;28;20261;-65
2023/05/01 07:08:31;;;;;;;11.07;9.88;;;16.60;99.90;;;;;;5041576;28;20190;-64
2023/05/01 07:10:57;;;;;;;13.15;10.50;;;16.70;99.90;;;;;;5054288;28;20182;-64
2023/05/01 07:13:23;;;;;;;13.88;11.77;;;16.80;99.90;;;;;;5054045;28;20224;-64
2023/05/01 07:15:49;;;;;;;10.77;9.68;;;16.60;99.90;;;;;;5050768;28;20182;-64
2023/05/01 07:18:15;;;;;;;13.57;11.75;;;16.40;99.90;;;;;;5043250;28;20230;-64
2023/05/01 07:20:41;;;;;;;15.82;11.40;;;16.60;99.90;;;;;;5053339;28;20240;-64
2023/05/01 07:23:08;;;;;;;20.85;13.57;;;16.60;99.90;;;;;;5051175;28;20207;-65
2023/05/01 07:25:36;;;;;;;17.05;13.45;;;17.00;99.90;;;;;;5039620;28;20510;-64
2023/05/01 07:28:04;;;;;;;17.67;13.65;;;16.90;99.90;;;;;;5053869;28;20201;-64
2023/05/01 07:30:29;;;;;;;16.85;13.77;;;17.20;99.90;;;;;;5052260;28;20190;-66
2023/05/01 07:32:58;;;;;;;19.10;14.88;;;17.20;99.90;;;;;;5050709;28;20197;-65
2023/05/01 07:35:24;;;;;;;20.45;16.30;;;17.00;99.90;;;;;;5086370;28;20185;-65
2023/05/01 07:37:50;;;;;;;24.30;17.42;;;17.20;99.90;;;;;;5044106;28;20195;-65
2023/05/01 07:40:16;;;;;;;25.33;17.63;;;17.40;99.90;;;;;;5053389;28;20178;-65
2023/05/01 07:42:42;;;;;;;24.77;18.15;;;17.50;99.90;;;;;;5079961;28;20509;-65
2023/05/01 07:45:08;;;;;;;26.05;17.77;;;17.50;99.90;;;;;;5051937;28;20198;-64
2023/05/01 07:47:35;;;;;;;25.33;17.50;;;17.30;99.90;;;;;;5042666;28;20182;-64
2023/05/01 07:50:01;;;;;;;24.63;18.45;;;17.30;99.90;;;;;;5040659;28;20562;-64
2023/05/01 07:52:27;;;;;;;28.23;18.85;;;17.20;99.90;;;;;;5044804;28;20213;-65
2023/05/01 07:54:53;;;;;;;23.63;17.23;;;17.30;99.90;;;;;;5042485;28;20227;-64
2023/05/01 07:57:19;;;;;;;28.45;18.83;;;17.30;99.90;;;;;;5051291;28;20601;-65
2023/05/01 07:59:45;;;;;;;25.58;18.75;;;17.10;99.90;;;;;;5053105;28;20647;-65
2023/05/01 08:02:12;;;;;;;29.95;19.42;;;17.10;99.90;;;;;;5052304;28;20200;-64
2023/05/01 08:04:38;;;;;;;31.27;19.20;;;17.10;99.90;;;;;;5051617;28;20174;-70
2023/05/01 08:07:04;;;;;;;31.27;21.73;;;17.00;99.90;;;;;;5052813;28;20190;-68
2023/05/01 08:09:30;;;;;;;29.10;19.05;;;17.30;99.90;;;;;;5051794;28;20204;-69
2023/05/01 08:11:56;;;;;;;31.52;19.88;;;17.20;99.90;;;;;;5047466;28;20186;-70
2023/05/01 08:14:21;;;;;;;33.88;22.88;;;17.30;99.90;;;;;;5042479;28;20645;-69
2023/05/01 08:16:53;;;;;;;40.22;24.15;;;17.00;99.90;;;;;;5043326;28;20182;-67
2023/05/01 08:19:18;;;;;;;36.17;24.10;;;17.00;99.90;;;;;;5052567;28;20221;-67
2023/05/01 08:21:44;;;;;;;32.85;21.58;;;17.10;99.90;;;;;;5068789;28;20292;-66
2023/05/01 08:24:10;;;;;;;40.63;24.33;;;17.20;99.90;;;;;;5048208;28;20186;-69
2023/05/01 08:26:35;;;;;;;37.45;23.98;;;17.20;99.90;;;;;;5052908;28;20665;-68
2023/05/01 08:29:01;;;;;;;38.97;23.92;;;17.30;99.90;;;;;;5039196;28;20214;-65
2023/05/01 08:31:27;;;;;;;52.97;26.52;;;17.40;99.90;;;;;;5047971;28;20178;-67
2023/05/01 08:33:53;;;;;;;45.67;26.45;;;17.50;99.90;;;;;;5041336;28;20198;-72
2023/05/01 08:36:18;;;;;;;47.30;28.63;;;17.10;99.90;;;;;;5042564;28;20185;-67
2023/05/01 08:38:44;;;;;;;52.17;28.10;;;17.20;99.90;;;;;;5043412;28;20197;-68
2023/05/01 08:41:19;;;;;;;54.35;26.75;;;17.40;99.90;;;;;;5052446;28;20516;-68
2023/05/01 08:43:45;;;;;;;53.38;27.48;;;17.40;99.90;;;;;;5043178;28;20204;-67
2023/05/01 08:46:14;;;;;;;58.25;28.23;;;17.40;99.90;;;;;;5044950;28;20183;-68
2023/05/01 08:48:41;;;;;;;57.45;29.30;;;17.40;99.90;;;;;;5065056;28;20238;-66
2023/05/01 08:51:10;;;;;;;46.97;26.08;;;17.50;99.90;;;;;;5046876;28;20217;-66
2023/05/01 08:53:37;;;;;;;47.10;27.75;;;17.70;99.90;;;;;;5039563;28;20213;-66
2023/05/01 08:56:05;;;;;;;48.00;27.35;;;18.20;99.90;;;;;;5084724;28;20520;-67
2023/05/01 08:58:34;;;;;;;48.63;27.52;;;18.30;99.90;;;;;;5051741;28;20205;-66
2023/05/01 09:01:01;;;;;;;48.72;27.38;;;18.30;99.90;;;;;;5052270;28;20178;-66
2023/05/01 09:03:31;;;;;;;48.05;27.00;;;18.20;99.90;;;;;;5062734;28;20567;-66
2023/05/01 09:05:58;;;;;;;50.72;29.40;;;18.40;99.90;;;;;;5052717;28;20178;-65
2023/05/01 09:08:24;;;;;;;45.35;26.63;;;18.40;99.90;;;;;;5068275;28;20188;-68
2023/05/01 09:10:52;;;;;;;49.03;27.38;;;18.90;99.90;;;;;;5051458;28;20534;-67
2023/05/01 09:13:18;;;;;;;54.30;27.65;;;19.30;99.90;;;;;;5063623;28;20210;-68
2023/05/01 09:15:44;;;;;;;48.78;27.67;;;19.40;99.90;;;;;;5047335;28;20220;-66
2023/05/01 09:18:11;;;;;;;49.75;26.05;;;18.80;99.90;;;;;;5053328;28;20355;-68
2023/05/01 09:20:37;;;;;;;43.03;24.83;;;18.50;99.90;;;;;;5055908;28;20273;-67
2023/05/01 09:23:03;;;;;;;53.63;28.40;;;18.30;99.90;;;;;;5056373;28;20261;-68
2023/05/01 09:25:29;;;;;;;48.85;27.75;;;18.30;99.90;;;;;;5053560;28;20183;-68
2023/05/01 09:27:56;;;;;;;50.65;28.17;;;18.30;99.90;;;;;;5053093;28;20185;-67
2023/05/01 09:30:33;;;;;;;50.28;28.10;;;18.10;99.90;;;;;;5078121;28;20664;-67
2023/05/01 09:33:12;;;;;;;60.47;29.27;;;18.00;99.90;;;;;;5053175;28;20205;-66
2023/05/01 09:35:55;;;;;;;54.72;27.30;;;18.00;99.90;;;;;;5080273;28;20181;-66
2023/05/01 09:38:26;;;;;;;52.85;27.80;;;18.20;99.90;;;;;;5051306;28;20188;-66
2023/05/01 09:41:02;;;;;;;46.60;26.77;;;18.20;99.90;;;;;;5051756;28;20182;-66
2023/05/01 09:43:29;;;;;;;53.80;29.23;;;18.20;99.90;;;;;;5041375;28;20694;-66
2023/05/01 09:46:16;;;;;;;54.00;28.63;;;18.40;99.90;;;;;;5052851;28;20186;-66
2023/05/01 09:48:58;;;;;;;45.45;25.52;;;18.00;99.90;;;;;;5044985;28;20501;-65
2023/05/01 09:51:28;;;;;;;58.97;27.50;;;17.90;99.90;;;;;;5055081;28;20178;-66
2023/05/01 09:53:58;;;;;;;53.95;27.60;;;17.70;99.90;;;;;;5055414;28;20201;-69
2023/05/01 09:56:28;;;;;;;62.95;29.90;;;17.70;99.90;;;;;;5055797;28;20206;-67
2023/05/01 09:58:56;;;;;;;56.78;31.55;;;17.70;99.90;;;;;;5049814;28;20674;-67
2023/05/01 10:01:45;;;;;;;53.88;29.33;;;17.80;99.90;;;;;;5058559;28;20321;-67
2023/05/01 10:04:12;;;;;;;43.25;24.73;;;18.00;99.90;;;;;;5049200;28;20179;-68
2023/05/01 10:06:39;;;;;;;56.13;28.90;;;18.00;99.90;;;;;;5047149;28;20620;-67
2023/05/01 10:09:06;;;;;;;52.85;27.58;;;17.90;99.90;;;;;;5049300;28;20225;-66
2023/05/01 10:11:48;;;;;;;51.40;24.98;;;17.80;99.90;;;;;;5039039;28;20186;-68
2023/05/01 10:14:13;;;;;;;43.15;24.13;;;17.90;99.90;;;;;;5048834;28;20212;-67
2023/05/01 10:16:39;;;;;;;52.15;28.02;;;18.10;99.90;;;;;;5051535;28;20186;-68
2023/05/01 10:19:06;;;;;;;46.70;25.55;;;18.40;99.90;;;;;;5042318;28;20232;-71
2023/05/01 10:21:32;;;;;;;46.72;25.42;;;18.60;99.90;;;;;;5051814;28;20244;-71
2023/05/01 10:24:01;;;;;;;47.70;24.98;;;18.80;99.90;;;;;;5045749;28;20178;-71
2023/05/01 10:26:27;;;;;;;46.20;26.50;;;18.90;99.90;;;;;;5053236;28;20262;-70
2023/05/01 10:28:57;;;;;;;50.42;25.88;;;19.10;99.90;;;;;;5051209;28;20178;-70
2023/05/01 10:31:24;;;;;;;43.45;24.27;;;19.40;99.90;;;;;;5053235;28;20661;-69
2023/05/01 10:33:51;;;;;;;50.10;26.20;;;19.60;99.90;;;;;;5053322;28;20233;-69
2023/05/01 10:36:23;;;;;;;47.47;24.95;;;19.40;99.90;;;;;;5050791;28;20705;-69
2023/05/01 10:38:48;;;;;;;42.17;24.98;;;19.30;99.90;;;;;;5054827;28;20209;-69
2023/05/01 10:41:15;;;;;;;45.00;22.73;;;19.50;99.90;;;;;;5057947;28;20209;-68
2023/05/01 10:43:42;;;;;;;41.13;21.27;;;19.50;99.90;;;;;;5047385;28;20269;-68
2023/05/01 10:46:19;;;;;;;43.80;24.77;;;19.50;99.90;;;;;;5049774;28;20260;-69
2023/05/01 10:48:45;;;;;;;40.28;24.35;;;19.70;99.90;;;;;;5054557;28;20181;-67
2023/05/01 10:51:12;;;;;;;44.45;24.83;;;20.00;99.90;;;;;;5051317;28;20246;-68
2023/05/01 10:53:39;;;;;;;48.15;27.55;;;19.70;99.90;;;;;;5062809;28;20205;-67
2023/05/01 10:56:25;;;;;;;51.03;26.40;;;19.70;99.90;;;;;;5054153;28;20200;-70
2023/05/01 10:58:58;;;;;;;53.55;26.88;;;19.80;99.90;;;;;;5050656;28;20190;-67
2023/05/01 11:01:40;;;;;;;49.50;26.38;;;20.20;99.90;;;;;;5052598;28;20520;-68
2023/05/01 11:04:21;;;;;;;50.85;27.27;;;20.60;99.90;;;;;;5054363;28;20264;-67
2023/05/01 11:07:03;;;;;;;46.60;25.75;;;20.70;99.90;;;;;;5075732;28;20197;-68
2023/05/01 11:09:45;;;;;;;46.15;25.85;;;20.90;99.90;;;;;;5053030;28;20201;-70
2023/05/01 11:12:34;;;;;;;47.53;25.40;;;20.70;99.90;;;;;;5053585;28;20243;-68
2023/05/01 11:15:04;;;;;;;46.08;25.17;;;20.70;99.90;;;;;;5048565;28;20174;-67
2023/05/01 11:17:38;;;;;;;46.35;24.23;;;20.80;99.90;;;;;;5048482;28;20178;-67
2023/05/01 11:20:05;;;;;;;46.63;24.85;;;21.20;99.90;;;;;;5054261;28;20300;-67
2023/05/01 11:22:34;;;;;;;50.75;24.92;;;21.50;99.90;;;;;;5053626;28;20228;-67
2023/05/01 11:25:04;;;;;;;39.20;24.35;;;21.60;99.90;;;;;;5052861;28;20193;-68
2023/05/01 11:27:30;;;;;;;42.45;25.35;;;21.40;99.90;;;;;;5054070;28;20178;-69
2023/05/01 11:29:57;;;;;;;46.75;24.17;;;21.10;99.90;;;;;;5049037;28;20228;-69
2023/05/01 11:32:26;;;;;;;45.78;25.83;;;20.70;99.90;;;;;;5052446;28;20209;-66
2023/05/01 11:34:53;;;;;;;35.00;21.63;;;20.20;99.90;;;;;;5050713;28;20638;-69
2023/05/01 11:37:19;;;;;;;42.63;24.40;;;20.10;99.90;;;;;;5053731;28;20182;-69
2023/05/01 11:39:49;;;;;;;46.40;24.40;;;20.40;99.90;;;;;;5052684;28;20277;-68
2023/05/01 11:42:14;;;;;;;41.67;24.75;;;20.10;99.90;;;;;;5052662;28;20189;-69
2023/05/01 11:44:40;;;;;;;44.80;24.88;;;20.10;99.90;;;;;;5049537;28;20182;-69
2023/05/01 11:47:07;;;;;;;39.88;23.80;;;20.40;99.90;;;;;;5066469;28;20186;-70
2023/05/01 11:49:34;;;;;;;39.33;23.30;;;20.40;99.90;;;;;;5048645;28;20655;-70
2023/05/01 11:51:59;;;;;;;39.60;22.65;;;20.40;99.90;;;;;;5053462;28;20822;-70
2023/05/01 11:54:26;;;;;;;35.70;21.33;;;20.40;99.90;;;;;;5052737;28;20173;-71
2023/05/01 11:57:02;;;;;;;25.17;14.98;;;20.60;99.90;;;;;;5043471;28;20224;-70
2023/05/01 11:59:29;;;;;;;20.35;13.35;;;20.50;99.90;;;;;;5050676;28;20574;-69
2023/05/01 12:01:55;;;;;;;19.80;12.70;;;20.80;99.90;;;;;;5053281;28;20268;-70
2023/05/01 12:04:27;;;;;;;16.08;11.75;;;21.00;99.90;;;;;;5050872;28;20178;-69
2023/05/01 12:06:53;;;;;;;15.45;11.75;;;21.20;99.90;;;;;;5053169;28;20190;-68
2023/05/01 12:09:25;;;;;;;16.45;11.90;;;21.10;99.90;;;;;;5049673;28;20511;-68
2023/05/01 12:11:52;;;;;;;16.13;11.05;;;21.00;99.90;;;;;;5052880;28;20290;-67
2023/05/01 12:14:20;;;;;;;19.30;12.30;;;20.90;99.90;;;;;;5067101;28;20270;-66
2023/05/01 12:16:46;;;;;;;19.23;12.90;;;21.00;99.90;;;;;;5052890;28;20174;-68
2023/05/01 12:19:13;;;;;;;19.05;12.90;;;20.90;99.90;;;;;;5048461;28;20217;-69
2023/05/01 12:21:39;;;;;;;22.25;13.52;;;21.00;99.90;;;;;;5048507;28;20571;-69
2023/05/01 12:24:10;;;;;;;17.95;12.82;;;21.10;99.90;;;;;;5052884;28;20190;-70
2023/05/01 12:26:36;;;;;;;22.67;14.88;;;21.20;99.90;;;;;;5085033;28;20267;-69
2023/05/01 12:29:07;;;;;;;23.05;15.48;;;21.40;99.90;;;;;;5047965;28;20638;-70
2023/05/01 12:31:33;;;;;;;20.88;12.63;;;21.40;99.90;;;;;;5051321;28;20259;-69
2023/05/01 12:34:04;;;;;;;18.20;13.40;;;21.60;99.90;;;;;;5044477;28;20688;-67
2023/05/01 12:36:32;;;;;;;18.35;12.13;;;21.40;99.90;;;;;;5050394;28;20185;-70
2023/05/01 12:39:00;;;;;;;15.15;11.43;;;21.10;99.90;;;;;;5053243;28;20177;-70